createdAt,value
2018-07-11T00:00:55.174Z,8.07
2018-07-11T00:03:33.635Z,5.53
2018-07-11T00:06:01.735Z,4.30
2018-07-11T00:08:30.070Z,4.00
2018-07-11T00:10:58.455Z,5.43
2018-07-11T00:13:26.780Z,4.97
2018-07-11T00:15:55.146Z,4.33
2018-07-11T00:18:23.503Z,3.60
2018-07-11T00:20:51.903Z,3.83
2018-07-11T00:23:20.267Z,4.50
2018-07-11T00:25:48.787Z,4.57
2018-07-11T00:28:17.111Z,4.10
2018-07-11T00:30:45.495Z,4.90
2018-07-11T00:33:13.834Z,4.57
2018-07-11T00:35:42.188Z,4.67
2018-07-11T00:38:10.532Z,4.80
2018-07-11T00:40:38.954Z,4.57
2018-07-11T00:43:07.311Z,4.40
2018-07-11T00:45:35.713Z,3.75
2018-07-11T00:48:04.023Z,4.13
2018-07-11T00:50:32.370Z,3.47
2018-07-11T00:53:00.681Z,4.03
2018-07-11T00:55:29.188Z,5.87
2018-07-11T00:58:05.707Z,3.83
2018-07-11T01:00:34.059Z,4.00
2018-07-11T01:03:02.447Z,4.37
2018-07-11T01:05:30.787Z,3.50
2018-07-11T01:07:59.242Z,3.17
2018-07-11T01:10:27.675Z,5.67
2018-07-11T01:12:55.990Z,4.07
2018-07-11T01:15:24.361Z,3.60
2018-07-11T01:18:02.432Z,3.73
2018-07-11T01:20:31.381Z,4.60
2018-07-11T01:23:00.045Z,5.40
2018-07-11T01:25:28.377Z,5.50
2018-07-11T01:27:56.957Z,5.07
2018-07-11T01:30:25.283Z,5.93
2018-07-11T01:32:53.625Z,6.80
2018-07-11T01:35:21.988Z,6.40
2018-07-11T01:37:50.298Z,5.43
2018-07-11T01:40:18.643Z,5.67
2018-07-11T01:42:46.974Z,4.53
2018-07-11T01:45:15.299Z,6.07
2018-07-11T01:47:43.646Z,6.60
2018-07-11T01:50:12.312Z,5.87
2018-07-11T01:52:51.566Z,6.33
2018-07-11T01:55:19.991Z,6.57
2018-07-11T01:57:50.033Z,5.97
2018-07-11T02:00:19.305Z,7.80
2018-07-11T02:02:47.686Z,6.50
2018-07-11T02:05:16.333Z,8.03
2018-07-11T02:07:44.958Z,6.70
2018-07-11T02:10:14.036Z,6.53
2018-07-11T02:12:43.141Z,5.90
2018-07-11T02:15:12.445Z,5.83
2018-07-11T02:17:40.997Z,6.10
2018-07-11T02:20:12.553Z,6.30
2018-07-11T02:22:41.443Z,7.27
2018-07-11T02:25:09.808Z,6.30
2018-07-11T02:27:38.247Z,6.30
2018-07-11T02:30:06.576Z,6.77
2018-07-11T02:32:34.947Z,5.90
2018-07-11T02:35:03.274Z,6.20
2018-07-11T02:37:31.339Z,6.17
2018-07-11T02:39:59.658Z,6.33
2018-07-11T02:42:28.012Z,4.17
2018-07-11T02:44:56.393Z,6.03
2018-07-11T02:47:30.242Z,5.03
2018-07-11T02:49:58.559Z,6.00
2018-07-11T02:52:26.942Z,6.37
2018-07-11T02:54:55.260Z,5.83
2018-07-11T02:57:23.731Z,5.80
2018-07-11T02:59:52.034Z,4.40
2018-07-11T03:02:20.475Z,4.57
2018-07-11T03:04:48.857Z,4.60
2018-07-11T03:07:17.221Z,4.07
2018-07-11T03:09:46.458Z,3.60
2018-07-11T03:12:14.777Z,4.90
2018-07-11T03:14:45.814Z,5.20
2018-07-11T03:17:14.190Z,5.60
2018-07-11T03:19:42.571Z,6.87
2018-07-11T03:22:10.938Z,6.37
2018-07-11T03:24:39.315Z,6.07
2018-07-11T03:27:07.663Z,5.40
2018-07-11T03:29:36.013Z,5.40
2018-07-11T03:32:04.354Z,4.97
2018-07-11T03:34:32.717Z,5.80
2018-07-11T03:37:01.092Z,7.40
2018-07-11T03:39:29.472Z,5.90
2018-07-11T03:41:57.829Z,6.43
2018-07-11T03:44:26.133Z,6.20
2018-07-11T03:46:54.523Z,5.40
2018-07-11T03:49:22.846Z,4.07
2018-07-11T03:51:51.263Z,6.67
2018-07-11T03:54:19.605Z,4.20
2018-07-11T03:56:48.490Z,4.97
2018-07-11T03:59:17.832Z,4.60
2018-07-11T04:01:46.306Z,6.90
2018-07-11T04:04:14.633Z,8.83
2018-07-11T04:06:42.990Z,5.80
2018-07-11T04:09:11.367Z,6.90
2018-07-11T04:11:39.752Z,6.63
2018-07-11T04:14:08.683Z,8.60
2018-07-11T04:16:37.059Z,6.20
2018-07-11T04:19:05.390Z,6.97
2018-07-11T04:21:33.500Z,8.53
2018-07-11T04:24:01.865Z,5.47
2018-07-11T04:26:30.273Z,9.53
2018-07-11T04:28:58.625Z,10.00
2018-07-11T04:31:26.930Z,7.90
2018-07-11T04:33:55.340Z,8.60
2018-07-11T04:36:23.757Z,8.27
2018-07-11T04:38:52.639Z,8.57
2018-07-11T04:41:20.939Z,7.43
2018-07-11T04:43:49.351Z,9.00
2018-07-11T04:46:17.736Z,8.70
2018-07-11T04:48:46.120Z,8.33
2018-07-11T04:51:14.452Z,8.13
2018-07-11T04:53:43.462Z,9.57
2018-07-11T04:56:11.803Z,11.83
2018-07-11T04:58:40.149Z,9.37
2018-07-11T05:01:08.457Z,11.10
2018-07-11T05:03:36.815Z,11.17
2018-07-11T05:06:05.562Z,12.03
2018-07-11T05:08:33.877Z,8.03
2018-07-11T05:11:02.283Z,11.80
2018-07-11T05:13:30.580Z,9.70
2018-07-11T05:15:58.894Z,9.70
2018-07-11T05:18:27.211Z,9.03
2018-07-11T05:20:55.267Z,7.80
2018-07-11T05:23:23.584Z,8.70
2018-07-11T05:25:51.899Z,8.43
2018-07-11T05:28:20.247Z,7.90
2018-07-11T05:30:48.567Z,8.30
2018-07-11T05:33:16.931Z,6.23
2018-07-11T05:35:45.252Z,6.47
2018-07-11T05:38:13.606Z,6.60
2018-07-11T05:40:41.933Z,6.60
2018-07-11T05:43:10.275Z,7.10
2018-07-11T05:45:38.633Z,6.17
2018-07-11T05:48:07.028Z,6.03
2018-07-11T05:50:35.331Z,6.07
2018-07-11T05:53:03.678Z,6.53
2018-07-11T05:55:31.971Z,6.17
2018-07-11T05:58:00.340Z,5.30
2018-07-11T06:00:28.666Z,5.60
2018-07-11T06:02:56.999Z,4.60
2018-07-11T06:05:25.373Z,5.43
2018-07-11T06:07:53.907Z,4.97
2018-07-11T06:10:22.236Z,4.70
2018-07-11T06:12:50.543Z,5.67
2018-07-11T06:15:18.936Z,5.58
2018-07-11T06:17:47.318Z,5.53
2018-07-11T06:20:15.856Z,5.25
2018-07-11T06:22:44.170Z,4.07
2018-07-11T06:25:12.598Z,3.80
2018-07-11T06:27:40.937Z,4.53
2018-07-11T06:30:09.296Z,4.95
2018-07-11T06:32:37.626Z,5.20
2018-07-11T06:35:05.981Z,4.15
2018-07-11T06:37:34.318Z,3.30
2018-07-11T06:40:02.646Z,3.22
2018-07-11T06:42:30.986Z,3.60
2018-07-11T06:44:59.343Z,3.02
2018-07-11T06:47:30.300Z,3.15
2018-07-11T06:49:58.902Z,3.42
2018-07-11T06:52:27.279Z,3.30
2018-07-11T06:54:56.037Z,6.20
2018-07-11T06:57:24.720Z,4.53
2018-07-11T06:59:53.101Z,3.70
2018-07-11T07:02:21.458Z,4.12
2018-07-11T07:04:49.866Z,4.05
2018-07-11T07:07:18.753Z,4.10
2018-07-11T07:09:47.226Z,3.70
2018-07-11T07:12:15.927Z,5.33
2018-07-11T07:14:44.259Z,4.47
2018-07-11T07:17:12.706Z,4.92
2018-07-11T07:19:41.103Z,3.17
2018-07-11T07:22:09.490Z,4.03
2018-07-11T07:24:38.674Z,3.72
2018-07-11T07:27:07.191Z,2.87
2018-07-11T07:29:36.118Z,3.72
2018-07-11T07:32:04.618Z,4.12
2018-07-11T07:34:32.990Z,4.45
2018-07-11T07:37:01.327Z,4.67
2018-07-11T07:39:29.686Z,4.20
2018-07-11T07:41:58.008Z,3.20
2018-07-11T07:44:26.081Z,3.35
2018-07-11T07:47:01.558Z,3.75
2018-07-11T07:49:31.459Z,3.55
2018-07-11T07:52:00.244Z,4.08
2018-07-11T07:54:29.073Z,3.30
2018-07-11T07:56:57.433Z,3.08
2018-07-11T07:59:26.170Z,2.95
2018-07-11T08:01:54.570Z,2.40
2018-07-11T08:04:23.118Z,4.10
2018-07-11T08:06:51.691Z,3.20
2018-07-11T08:09:20.216Z,1.80
2018-07-11T08:11:48.588Z,2.75
2018-07-11T08:14:16.970Z,2.87
2018-07-11T08:19:28.145Z,1.72
2018-07-11T08:21:56.512Z,1.87
2018-07-11T08:24:36.253Z,1.70
2018-07-11T08:27:15.997Z,1.42
2018-07-11T08:30:16.060Z,0.70
2018-07-11T08:33:25.835Z,1.07
2018-07-11T08:36:10.158Z,1.12
2018-07-11T08:38:51.440Z,1.27
2018-07-11T08:41:29.453Z,1.40
2018-07-11T08:46:17.375Z,2.37
2018-07-11T08:48:51.043Z,15.00
2018-07-11T08:51:31.309Z,1.55
2018-07-11T08:56:16.454Z,1.42
2018-07-11T08:58:55.653Z,0.93
2018-07-11T09:02:07.073Z,0.62
2018-07-11T09:04:48.237Z,0.50
2018-07-11T09:07:29.603Z,2.50
2018-07-11T09:12:12.664Z,1.22
2018-07-11T09:14:59.346Z,1.22
2018-07-11T09:18:11.025Z,1.30
2018-07-11T09:21:35.722Z,1.62
2018-07-11T09:24:17.652Z,1.17
2018-07-11T09:26:46.056Z,1.00
2018-07-11T09:29:14.422Z,1.25
2018-07-11T09:31:43.215Z,4.08
2018-07-11T09:34:11.550Z,0.80
2018-07-11T09:36:39.918Z,2.58
2018-07-11T09:39:08.290Z,1.00
2018-07-11T09:41:36.783Z,0.93
2018-07-11T09:44:05.141Z,1.17
2018-07-11T09:46:33.466Z,1.05
2018-07-11T09:49:01.897Z,3.90
2018-07-11T09:51:30.281Z,1.07
2018-07-11T09:53:58.688Z,0.80
2018-07-11T09:56:27.002Z,0.90
2018-07-11T09:58:56.066Z,0.60
2018-07-11T10:01:26.325Z,0.62
2018-07-11T10:03:55.948Z,1.42
2018-07-11T10:06:24.985Z,1.10
2018-07-11T10:08:53.724Z,0.98
2018-07-11T10:11:22.195Z,1.10
2018-07-11T10:13:50.646Z,3.25
2018-07-11T10:16:18.999Z,0.62
2018-07-11T10:18:56.583Z,0.80
2018-07-11T10:21:24.885Z,0.93
2018-07-11T10:23:53.829Z,0.95
2018-07-11T10:26:22.325Z,0.80
2018-07-11T10:28:50.849Z,0.90
2018-07-11T10:31:18.920Z,0.60
2018-07-11T10:33:47.294Z,1.37
2018-07-11T10:36:15.650Z,0.78
2018-07-11T10:38:44.046Z,0.70
2018-07-11T10:41:12.399Z,1.52
2018-07-11T10:43:41.169Z,0.78
2018-07-11T10:46:09.566Z,0.90
2018-07-11T10:48:38.764Z,0.80
2018-07-11T10:51:07.308Z,1.17
2018-07-11T10:53:35.729Z,1.30
2018-07-11T10:56:04.143Z,1.40
2018-07-11T10:58:33.129Z,0.90
2018-07-11T11:01:05.698Z,1.27
2018-07-11T11:03:32.312Z,1.82
2018-07-11T11:06:00.638Z,1.30
2018-07-11T11:08:29.640Z,1.25
2018-07-11T11:10:57.986Z,0.80
2018-07-11T11:13:26.714Z,0.80
2018-07-11T11:15:55.688Z,0.70
2018-07-11T11:18:24.490Z,1.40
2018-07-11T11:20:55.987Z,1.47
2018-07-11T11:23:24.429Z,1.20
2018-07-11T11:25:52.762Z,1.42
2018-07-11T11:28:21.121Z,2.87
2018-07-11T11:30:49.521Z,1.32
2018-07-11T11:33:17.874Z,0.80
2018-07-11T11:35:46.387Z,1.12
2018-07-11T11:38:14.742Z,1.37
2018-07-11T11:40:43.204Z,1.67
2018-07-11T11:43:11.651Z,1.10
2018-07-11T11:45:40.037Z,1.70
2018-07-11T11:48:08.491Z,1.60
2018-07-11T11:50:36.908Z,1.00
2018-07-11T11:53:05.334Z,3.33
2018-07-11T11:55:33.679Z,1.20
2018-07-11T11:58:02.022Z,2.17
2018-07-11T12:00:30.419Z,1.47
2018-07-11T12:02:58.798Z,1.52
2018-07-11T12:05:27.182Z,0.95
2018-07-11T12:07:55.554Z,1.32
2018-07-11T12:10:23.917Z,1.20
2018-07-11T12:12:52.274Z,1.15
2018-07-11T12:15:20.671Z,1.10
2018-07-11T12:17:49.039Z,1.20
2018-07-11T12:20:17.477Z,1.00
2018-07-11T12:22:45.845Z,0.95
2018-07-11T12:25:14.220Z,1.22
2018-07-11T12:27:42.681Z,0.95
2018-07-11T12:30:11.078Z,1.87
2018-07-11T12:32:39.436Z,1.20
2018-07-11T12:35:07.868Z,3.08
2018-07-11T12:37:36.234Z,2.67
2018-07-11T12:40:04.630Z,2.02
2018-07-11T12:42:33.019Z,1.65
2018-07-11T12:45:01.358Z,3.05
2018-07-11T12:47:35.162Z,1.07
2018-07-11T12:50:03.581Z,1.10
2018-07-11T12:52:32.021Z,1.32
2018-07-11T12:55:00.470Z,1.25
2018-07-11T12:57:28.798Z,1.05
2018-07-11T12:59:57.163Z,3.85
2018-07-11T13:02:25.567Z,0.95
2018-07-11T13:04:53.902Z,1.00
2018-07-11T13:07:22.286Z,1.60
2018-07-11T13:12:25.432Z,1.05
2018-07-11T13:14:53.761Z,1.62
2018-07-11T13:17:22.194Z,1.20
2018-07-11T13:19:50.554Z,1.35
2018-07-11T13:22:18.902Z,1.17
2018-07-11T13:24:47.285Z,1.32
2018-07-11T13:27:15.706Z,0.93
2018-07-11T13:29:44.067Z,0.80
2018-07-11T13:32:12.418Z,1.07
2018-07-11T13:34:40.847Z,2.05
2018-07-11T13:37:09.232Z,3.65
2018-07-11T13:39:37.601Z,0.95
2018-07-11T13:42:05.967Z,1.62
2018-07-11T13:44:34.354Z,1.10
2018-07-11T13:47:07.038Z,1.12
2018-07-11T13:49:35.402Z,1.72
2018-07-11T13:52:03.968Z,1.47
2018-07-11T13:54:32.350Z,0.98
2018-07-11T13:57:00.790Z,1.85
2018-07-11T13:59:29.224Z,1.00
2018-07-11T14:01:57.546Z,1.05
2018-07-11T14:04:25.980Z,1.12
2018-07-11T14:06:54.385Z,1.10
2018-07-11T14:09:22.800Z,2.08
2018-07-11T14:11:51.188Z,1.57
2018-07-11T14:14:19.593Z,1.25
2018-07-11T14:16:47.957Z,1.25
2018-07-11T14:19:16.388Z,1.65
2018-07-11T14:21:44.757Z,1.22
2018-07-11T14:24:13.743Z,1.07
2018-07-11T14:26:42.222Z,0.85
2018-07-11T14:29:10.338Z,1.67
2018-07-11T14:31:38.811Z,1.67
2018-07-11T14:34:08.818Z,1.12
2018-07-11T14:36:37.544Z,2.17
2018-07-11T14:39:07.428Z,1.32
2018-07-11T14:41:36.218Z,0.70
2018-07-11T14:44:04.589Z,0.90
2018-07-11T14:46:35.008Z,1.42
2018-07-11T14:49:03.609Z,0.95
2018-07-11T14:51:32.274Z,1.98
2018-07-11T14:54:00.526Z,0.90
2018-07-11T14:56:28.950Z,2.05
2018-07-11T14:58:58.409Z,2.67
2018-07-11T15:01:26.801Z,4.08
2018-07-11T15:03:55.455Z,3.80
2018-07-11T15:06:24.632Z,3.05
2018-07-11T15:08:54.361Z,3.37
2018-07-11T15:11:23.101Z,7.70
2018-07-11T15:13:51.801Z,3.42
2018-07-11T15:16:20.294Z,4.85
2018-07-11T15:18:49.274Z,4.72
2018-07-11T15:21:17.802Z,2.90
2018-07-11T15:23:46.280Z,3.80
2018-07-11T15:26:15.273Z,3.25
2018-07-11T15:28:43.674Z,3.22
2018-07-11T15:31:12.051Z,4.17
2018-07-11T15:33:40.102Z,1.85
2018-07-11T15:36:08.599Z,1.90
2018-07-11T15:38:36.982Z,1.47
2018-07-11T15:41:05.366Z,1.67
2018-07-11T15:43:34.207Z,1.52
2018-07-11T15:46:02.578Z,1.20
2018-07-11T15:48:31.073Z,1.42
2018-07-11T15:50:59.232Z,3.02
2018-07-11T15:53:29.973Z,2.08
2018-07-11T15:56:00.666Z,3.02
2018-07-11T15:58:31.268Z,1.57
2018-07-11T16:01:04.844Z,2.20
2018-07-11T16:03:36.747Z,2.55
2018-07-11T16:06:05.950Z,1.10
2018-07-11T16:08:34.333Z,1.77
2018-07-11T16:11:04.260Z,1.30
2018-07-11T16:13:32.844Z,1.02
2018-07-11T16:16:01.227Z,1.32
2018-07-11T16:18:29.610Z,1.17
2018-07-11T16:20:57.915Z,1.10
2018-07-11T16:23:26.278Z,1.37
2018-07-11T16:25:54.649Z,2.62
2018-07-11T16:28:23.023Z,1.47
2018-07-11T16:30:51.403Z,1.70
2018-07-11T16:33:19.735Z,2.02
2018-07-11T16:35:48.216Z,1.60
2018-07-11T16:38:16.956Z,1.57
2018-07-11T16:40:45.311Z,1.32
2018-07-11T16:43:14.625Z,0.80
2018-07-11T16:45:43.090Z,1.00
2018-07-11T16:48:11.479Z,1.00
2018-07-11T16:50:39.857Z,3.37
2018-07-11T16:53:08.247Z,1.70
2018-07-11T16:55:36.659Z,1.37
2018-07-11T16:58:05.075Z,2.10
2018-07-11T17:00:34.473Z,2.00
2018-07-11T17:03:09.561Z,1.52
2018-07-11T17:05:52.532Z,4.78
2018-07-11T17:08:36.733Z,1.55
2018-07-11T17:11:14.990Z,2.20
2018-07-11T17:13:48.494Z,1.82
2018-07-11T17:16:16.871Z,1.98
2018-07-11T17:18:47.419Z,1.40
2018-07-11T17:21:26.329Z,2.87
2018-07-11T17:24:00.674Z,2.08
2018-07-11T17:26:29.072Z,2.20
2018-07-11T17:28:59.267Z,2.45
2018-07-11T17:31:28.049Z,3.42
2018-07-11T17:33:56.812Z,1.65
2018-07-11T17:36:25.189Z,1.98
2018-07-11T17:38:54.676Z,1.57
2018-07-11T17:41:24.828Z,2.72
2018-07-11T17:43:57.524Z,1.42
2018-07-11T17:46:25.847Z,1.60
2018-07-11T17:49:02.706Z,1.30
2018-07-11T17:51:41.088Z,1.12
2018-07-11T17:54:09.496Z,0.93
2018-07-11T17:56:54.752Z,1.65
2018-07-11T17:59:45.653Z,0.90
2018-07-11T18:02:19.853Z,1.00
2018-07-11T18:06:58.944Z,1.17
2018-07-11T18:09:27.513Z,0.98
2018-07-11T18:13:04.459Z,1.15
2018-07-11T18:15:49.107Z,1.10
2018-07-11T18:18:22.752Z,1.30
2018-07-11T18:21:18.146Z,1.27
2018-07-11T18:25:58.843Z,1.07
2018-07-11T18:30:37.913Z,1.42
2018-07-11T18:33:19.495Z,1.70
2018-07-11T18:36:08.148Z,2.33
2018-07-11T18:38:44.434Z,1.47
2018-07-11T18:41:37.052Z,2.22
2018-07-11T18:44:22.344Z,10.25
2018-07-11T18:46:57.581Z,3.67
2018-07-11T18:49:33.487Z,4.15
2018-07-11T18:52:26.243Z,2.42
2018-07-11T18:57:09.383Z,1.50
2018-07-11T18:59:53.091Z,2.70
2018-07-11T19:02:26.805Z,1.55
2018-07-11T19:05:05.028Z,2.00
2018-07-11T19:08:05.128Z,2.42
2018-07-11T19:10:50.341Z,2.30
2018-07-11T19:13:29.028Z,4.17
2018-07-11T19:16:08.034Z,2.90
2018-07-11T19:18:43.340Z,2.80
2018-07-11T19:21:16.413Z,3.17
2018-07-11T19:24:06.984Z,2.45
2018-07-11T19:26:40.809Z,2.12
2018-07-11T19:30:14.528Z,2.67
2018-07-11T19:33:55.675Z,2.70
2018-07-11T19:36:59.514Z,3.37
2018-07-11T19:41:47.693Z,2.50
2018-07-11T19:44:26.964Z,3.02
2018-07-11T19:49:10.738Z,2.47
2018-07-11T19:51:46.897Z,2.70
2018-07-11T19:56:27.737Z,3.77
2018-07-11T19:58:56.091Z,3.43
2018-07-11T20:01:24.512Z,2.90
2018-07-11T20:03:52.901Z,2.10
2018-07-11T20:06:21.875Z,2.50
2018-07-11T20:08:50.744Z,2.97
2018-07-11T20:11:20.474Z,2.70
2018-07-11T20:13:48.854Z,2.73
2018-07-11T20:16:17.474Z,2.53
2018-07-11T20:18:45.825Z,2.98
2018-07-11T20:21:14.259Z,2.57
2018-07-11T20:23:42.692Z,2.60
2018-07-11T20:26:11.038Z,2.73
2018-07-11T20:28:39.564Z,2.63
2018-07-11T20:31:07.962Z,2.47
2018-07-11T20:33:36.136Z,3.05
2018-07-11T20:36:04.870Z,3.35
2018-07-11T20:38:33.335Z,3.60
2018-07-11T20:41:01.777Z,3.20
2018-07-11T20:43:30.122Z,3.17
2018-07-11T20:45:58.780Z,2.87
2018-07-11T20:48:27.260Z,3.90
2018-07-11T20:50:55.631Z,4.03
2018-07-11T20:53:24.014Z,3.40
2018-07-11T20:55:52.338Z,2.80
2018-07-11T20:58:32.033Z,2.80
2018-07-11T21:01:11.729Z,3.50
2018-07-11T21:04:00.051Z,3.50
2018-07-11T21:08:34.993Z,2.87
2018-07-11T21:11:49.702Z,2.77
2018-07-11T21:14:43.575Z,2.83
2018-07-11T21:17:46.698Z,3.60
2018-07-11T21:20:15.267Z,3.23
2018-07-11T21:22:43.713Z,3.50
2018-07-11T21:25:11.987Z,2.83
2018-07-11T21:27:41.209Z,5.47
2018-07-11T21:30:09.566Z,4.73
2018-07-11T21:32:37.957Z,2.67
2018-07-11T21:35:06.386Z,3.43
2018-07-11T21:37:34.761Z,3.83
2018-07-11T21:40:03.518Z,2.87
2018-07-11T21:42:31.871Z,3.50
2018-07-11T21:45:00.253Z,3.57
2018-07-11T21:47:28.619Z,4.00
2018-07-11T21:49:56.974Z,4.63
2018-07-11T21:52:25.307Z,4.80
2018-07-11T21:54:53.653Z,4.33
2018-07-11T21:57:23.092Z,3.30
2018-07-11T21:59:52.098Z,2.73
2018-07-11T22:02:20.421Z,3.57
2018-07-11T22:04:48.803Z,3.37
2018-07-11T22:07:17.128Z,4.30
2018-07-11T22:09:45.497Z,6.30
2018-07-11T22:12:13.866Z,5.90
2018-07-11T22:14:42.232Z,4.33
2018-07-11T22:17:21.994Z,5.13
2018-07-11T22:19:49.355Z,4.60
2018-07-11T22:22:16.735Z,5.87
2018-07-11T22:24:44.035Z,5.40
2018-07-11T22:27:11.380Z,7.93
2018-07-11T22:29:38.686Z,9.53
2018-07-11T22:32:06.004Z,13.27
2018-07-11T22:34:33.314Z,12.20
2018-07-11T22:37:00.651Z,9.93
2018-07-11T22:39:28.014Z,9.63
2018-07-11T22:41:55.324Z,8.23
2018-07-11T22:44:22.654Z,9.27
2018-07-11T22:46:49.966Z,6.67
2018-07-11T22:49:17.867Z,5.47
2018-07-11T22:51:45.209Z,6.57
2018-07-11T22:54:12.526Z,4.13
2018-07-11T22:56:39.830Z,5.43
2018-07-11T22:59:07.208Z,7.77
2018-07-11T23:01:34.509Z,4.77
2018-07-11T23:04:01.826Z,4.60
2018-07-11T23:06:29.154Z,4.03
2018-07-11T23:08:56.495Z,4.00
2018-07-11T23:11:23.812Z,4.70
2018-07-11T23:13:51.185Z,5.57
2018-07-11T23:16:18.537Z,4.40
2018-07-11T23:18:45.848Z,4.97
2018-07-11T23:21:13.441Z,4.90
2018-07-11T23:23:40.818Z,6.27
2018-07-11T23:26:08.119Z,5.03
2018-07-11T23:28:35.456Z,6.00
2018-07-11T23:31:02.756Z,5.17
2018-07-11T23:33:30.095Z,5.47
2018-07-11T23:35:57.421Z,5.60
2018-07-11T23:38:24.745Z,4.83
2018-07-11T23:40:52.056Z,5.85
2018-07-11T23:43:19.397Z,5.30
2018-07-11T23:45:47.639Z,6.42
2018-07-11T23:48:14.988Z,4.93
2018-07-11T23:50:42.318Z,5.53
2018-07-11T23:53:09.648Z,5.05
2018-07-11T23:55:36.975Z,5.43
2018-07-11T23:58:04.279Z,5.12
